sensor_id;sensor_type;location;lat;lon;timestamp;P1;durP1;ratioP1;P2;durP2;ratioP2
7076;SDS011;3579;48.956;9.154;2022-10-31T00:01:01;1.20;;;1.10;;
7076;SDS011;3579;48.956;9.154;2022-10-31T00:03:27;1.20;;;1.10;;
7076;SDS011;3579;48.956;9.154;2022-10-31T00:05:53;1.20;;;1.10;;
7076;SDS011;3579;48.956;9.154;2022-10-31T00:08:19;1.13;;;1.03;;
7076;SDS011;3579;48.956;9.154;2022-10-31T00:10:45;1.20;;;1.10;;
7076;SDS011;3579;48.956;9.154;2022-10-31T00:13:12;1.30;;;1.20;;
7076;SDS011;3579;48.956;9.154;2022-10-31T00:15:39;1.00;;;1.00;;
7076;SDS011;3579;48.956;9.154;2022-10-31T00:18:06;1.17;;;1.07;;
7076;SDS011;3579;48.956;9.154;2022-10-31T00:20:33;1.37;;;1.13;;
7076;SDS011;3579;48.956;9.154;2022-10-31T00:23:00;1.30;;;1.20;;
7076;SDS011;3579;48.956;9.154;2022-10-31T00:25:27;1.37;;;1.27;;
7076;SDS011;3579;48.956;9.154;2022-10-31T00:27:54;1.30;;;1.20;;
7076;SDS011;3579;48.956;9.154;2022-10-31T00:30:20;1.13;;;1.03;;
7076;SDS011;3579;48.956;9.154;2022-10-31T00:32:46;1.10;;;1.00;;
7076;SDS011;3579;48.956;9.154;2022-10-31T00:35:12;1.20;;;1.10;;
7076;SDS011;3579;48.956;9.154;2022-10-31T00:37:38;1.30;;;1.20;;
7076;SDS011;3579;48.956;9.154;2022-10-31T00:40:04;1.30;;;1.20;;
7076;SDS011;3579;48.956;9.154;2022-10-31T00:42:31;1.17;;;1.03;;
7076;SDS011;3579;48.956;9.154;2022-10-31T00:44:57;1.20;;;1.10;;
7076;SDS011;3579;48.956;9.154;2022-10-31T00:47:23;1.30;;;1.20;;
7076;SDS011;3579;48.956;9.154;2022-10-31T00:49:49;1.20;;;1.10;;
7076;SDS011;3579;48.956;9.154;2022-10-31T00:52:15;1.10;;;1.00;;
7076;SDS011;3579;48.956;9.154;2022-10-31T00:54:41;1.10;;;1.00;;
7076;SDS011;3579;48.956;9.154;2022-10-31T00:57:07;1.20;;;1.10;;
7076;SDS011;3579;48.956;9.154;2022-10-31T00:59:33;1.30;;;1.20;;
7076;SDS011;3579;48.956;9.154;2022-10-31T01:01:59;1.10;;;1.10;;
7076;SDS011;3579;48.956;9.154;2022-10-31T01:04:25;1.30;;;1.20;;
7076;SDS011;3579;48.956;9.154;2022-10-31T01:06:51;1.30;;;1.20;;
7076;SDS011;3579;48.956;9.154;2022-10-31T01:09:17;1.20;;;1.10;;
7076;SDS011;3579;48.956;9.154;2022-10-31T01:11:43;1.20;;;1.10;;
7076;SDS011;3579;48.956;9.154;2022-10-31T01:14:09;2.63;;;1.20;;
7076;SDS011;3579;48.956;9.154;2022-10-31T01:16:35;1.20;;;1.10;;
7076;SDS011;3579;48.956;9.154;2022-10-31T01:19:01;1.30;;;1.20;;
7076;SDS011;3579;48.956;9.154;2022-10-31T01:21:28;1.17;;;1.07;;
7076;SDS011;3579;48.956;9.154;2022-10-31T01:23:55;1.20;;;1.10;;
7076;SDS011;3579;48.956;9.154;2022-10-31T01:26:23;1.63;;;1.27;;
7076;SDS011;3579;48.956;9.154;2022-10-31T01:28:52;1.60;;;1.20;;
7076;SDS011;3579;48.956;9.154;2022-10-31T01:31:20;1.20;;;1.10;;
7076;SDS011;3579;48.956;9.154;2022-10-31T01:33:47;1.30;;;1.20;;
7076;SDS011;3579;48.956;9.154;2022-10-31T01:36:15;1.20;;;1.10;;
7076;SDS011;3579;48.956;9.154;2022-10-31T01:38:44;1.27;;;1.17;;
7076;SDS011;3579;48.956;9.154;2022-10-31T01:41:12;1.13;;;1.03;;
7076;SDS011;3579;48.956;9.154;2022-10-31T01:43:44;1.33;;;1.23;;
7076;SDS011;3579;48.956;9.154;2022-10-31T01:46:11;1.20;;;1.10;;
7076;SDS011;3579;48.956;9.154;2022-10-31T01:48:39;1.30;;;1.20;;
7076;SDS011;3579;48.956;9.154;2022-10-31T01:51:06;1.40;;;1.30;;
7076;SDS011;3579;48.956;9.154;2022-10-31T01:53:36;1.37;;;1.27;;
7076;SDS011;3579;48.956;9.154;2022-10-31T01:56:02;1.30;;;1.20;;
7076;SDS011;3579;48.956;9.154;2022-10-31T01:58:29;1.27;;;1.17;;
7076;SDS011;3579;48.956;9.154;2022-10-31T02:00:58;1.20;;;1.10;;
7076;SDS011;3579;48.956;9.154;2022-10-31T02:03:26;1.20;;;1.10;;
7076;SDS011;3579;48.956;9.154;2022-10-31T02:05:54;1.40;;;1.13;;
7076;SDS011;3579;48.956;9.154;2022-10-31T02:08:23;1.20;;;1.10;;
7076;SDS011;3579;48.956;9.154;2022-10-31T02:10:56;1.00;;;1.00;;
7076;SDS011;3579;48.956;9.154;2022-10-31T02:13:23;1.30;;;1.20;;
7076;SDS011;3579;48.956;9.154;2022-10-31T02:15:51;1.20;;;1.10;;
7076;SDS011;3579;48.956;9.154;2022-10-31T02:18:19;1.10;;;1.00;;
7076;SDS011;3579;48.956;9.154;2022-10-31T02:23:39;1.10;;;1.00;;
7076;SDS011;3579;48.956;9.154;2022-10-31T02:32:19;1.30;;;1.20;;
7076;SDS011;3579;48.956;9.154;2022-10-31T02:34:54;1.10;;;1.00;;
7076;SDS011;3579;48.956;9.154;2022-10-31T02:41:09;1.10;;;1.00;;
7076;SDS011;3579;48.956;9.154;2022-10-31T02:49:03;1.20;;;1.10;;
7076;SDS011;3579;48.956;9.154;2022-10-31T02:51:33;1.20;;;1.10;;
7076;SDS011;3579;48.956;9.154;2022-10-31T02:54:00;1.10;;;1.00;;
7076;SDS011;3579;48.956;9.154;2022-10-31T02:56:26;1.23;;;1.13;;
7076;SDS011;3579;48.956;9.154;2022-10-31T02:58:56;1.30;;;1.20;;
7076;SDS011;3579;48.956;9.154;2022-10-31T03:04:29;1.30;;;1.20;;
7076;SDS011;3579;48.956;9.154;2022-10-31T03:09:53;1.20;;;1.10;;
7076;SDS011;3579;48.956;9.154;2022-10-31T03:12:34;1.17;;;1.07;;
7076;SDS011;3579;48.956;9.154;2022-10-31T03:17:52;1.10;;;1.00;;
7076;SDS011;3579;48.956;9.154;2022-10-31T03:20:23;1.20;;;1.10;;
7076;SDS011;3579;48.956;9.154;2022-10-31T03:22:53;1.20;;;1.10;;
7076;SDS011;3579;48.956;9.154;2022-10-31T03:25:21;1.30;;;1.20;;
7076;SDS011;3579;48.956;9.154;2022-10-31T03:27:48;1.30;;;1.17;;
7076;SDS011;3579;48.956;9.154;2022-10-31T03:30:16;1.30;;;1.20;;
7076;SDS011;3579;48.956;9.154;2022-10-31T03:32:47;1.10;;;1.00;;
7076;SDS011;3579;48.956;9.154;2022-10-31T03:35:17;1.30;;;1.20;;
7076;SDS011;3579;48.956;9.154;2022-10-31T03:37:46;1.30;;;1.20;;
7076;SDS011;3579;48.956;9.154;2022-10-31T03:40:14;1.20;;;1.10;;
7076;SDS011;3579;48.956;9.154;2022-10-31T03:42:44;1.20;;;1.10;;
7076;SDS011;3579;48.956;9.154;2022-10-31T03:45:23;1.30;;;1.20;;
7076;SDS011;3579;48.956;9.154;2022-10-31T03:47:52;1.10;;;1.00;;
7076;SDS011;3579;48.956;9.154;2022-10-31T03:50:19;1.00;;;1.00;;
7076;SDS011;3579;48.956;9.154;2022-10-31T03:52:53;1.27;;;1.17;;
7076;SDS011;3579;48.956;9.154;2022-10-31T03:55:33;1.30;;;1.20;;
7076;SDS011;3579;48.956;9.154;2022-10-31T03:58:08;1.43;;;1.33;;
7076;SDS011;3579;48.956;9.154;2022-10-31T04:00:38;1.20;;;1.10;;
7076;SDS011;3579;48.956;9.154;2022-10-31T04:03:29;1.30;;;1.17;;
7076;SDS011;3579;48.956;9.154;2022-10-31T04:05:57;1.17;;;1.07;;
7076;SDS011;3579;48.956;9.154;2022-10-31T04:08:28;1.20;;;1.10;;
7076;SDS011;3579;48.956;9.154;2022-10-31T04:10:57;1.20;;;1.10;;
7076;SDS011;3579;48.956;9.154;2022-10-31T04:13:27;1.20;;;1.10;;
7076;SDS011;3579;48.956;9.154;2022-10-31T04:15:56;1.10;;;1.00;;
7076;SDS011;3579;48.956;9.154;2022-10-31T04:18:23;0.90;;;0.90;;
7076;SDS011;3579;48.956;9.154;2022-10-31T04:20:58;1.30;;;1.20;;
7076;SDS011;3579;48.956;9.154;2022-10-31T04:23:26;1.30;;;1.20;;
7076;SDS011;3579;48.956;9.154;2022-10-31T04:25:53;1.20;;;1.10;;
7076;SDS011;3579;48.956;9.154;2022-10-31T04:28:19;1.10;;;1.00;;
7076;SDS011;3579;48.956;9.154;2022-10-31T04:30:45;1.10;;;1.00;;
7076;SDS011;3579;48.956;9.154;2022-10-31T04:33:11;1.10;;;1.00;;
7076;SDS011;3579;48.956;9.154;2022-10-31T04:35:37;1.20;;;1.10;;
7076;SDS011;3579;48.956;9.154;2022-10-31T04:38:04;1.30;;;1.20;;
7076;SDS011;3579;48.956;9.154;2022-10-31T04:40:30;2.20;;;1.10;;
7076;SDS011;3579;48.956;9.154;2022-10-31T04:42:56;1.30;;;1.20;;
7076;SDS011;3579;48.956;9.154;2022-10-31T04:45:22;1.30;;;1.20;;
7076;SDS011;3579;48.956;9.154;2022-10-31T04:47:48;1.20;;;1.10;;
7076;SDS011;3579;48.956;9.154;2022-10-31T04:50:15;1.20;;;1.10;;
7076;SDS011;3579;48.956;9.154;2022-10-31T04:52:42;1.20;;;1.10;;
7076;SDS011;3579;48.956;9.154;2022-10-31T04:55:09;1.30;;;1.20;;
7076;SDS011;3579;48.956;9.154;2022-10-31T04:57:42;1.20;;;1.10;;
7076;SDS011;3579;48.956;9.154;2022-10-31T05:00:10;1.20;;;1.10;;
7076;SDS011;3579;48.956;9.154;2022-10-31T05:02:44;1.20;;;1.10;;
7076;SDS011;3579;48.956;9.154;2022-10-31T05:05:14;1.20;;;1.10;;
7076;SDS011;3579;48.956;9.154;2022-10-31T05:07:42;1.30;;;1.13;;
7076;SDS011;3579;48.956;9.154;2022-10-31T05:10:10;1.03;;;0.93;;
7076;SDS011;3579;48.956;9.154;2022-10-31T05:12:37;1.30;;;1.20;;
7076;SDS011;3579;48.956;9.154;2022-10-31T05:15:04;1.30;;;1.20;;
7076;SDS011;3579;48.956;9.154;2022-10-31T05:17:31;1.10;;;1.00;;
7076;SDS011;3579;48.956;9.154;2022-10-31T05:19:57;1.20;;;1.10;;
7076;SDS011;3579;48.956;9.154;2022-10-31T05:22:23;1.20;;;1.10;;
7076;SDS011;3579;48.956;9.154;2022-10-31T05:24:49;1.13;;;1.03;;
7076;SDS011;3579;48.956;9.154;2022-10-31T05:27:15;0.90;;;0.90;;
7076;SDS011;3579;48.956;9.154;2022-10-31T05:29:41;1.17;;;1.07;;
7076;SDS011;3579;48.956;9.154;2022-10-31T05:32:07;1.20;;;1.10;;
7076;SDS011;3579;48.956;9.154;2022-10-31T05:34:33;1.10;;;1.00;;
7076;SDS011;3579;48.956;9.154;2022-10-31T05:36:59;1.10;;;1.00;;
7076;SDS011;3579;48.956;9.154;2022-10-31T05:39:25;1.20;;;1.10;;
7076;SDS011;3579;48.956;9.154;2022-10-31T05:41:51;1.30;;;1.20;;
7076;SDS011;3579;48.956;9.154;2022-10-31T05:44:17;1.23;;;1.13;;
7076;SDS011;3579;48.956;9.154;2022-10-31T05:46:43;1.20;;;1.10;;
7076;SDS011;3579;48.956;9.154;2022-10-31T05:49:11;1.40;;;1.30;;
7076;SDS011;3579;48.956;9.154;2022-10-31T05:51:37;1.17;;;1.07;;
7076;SDS011;3579;48.956;9.154;2022-10-31T05:54:03;1.20;;;1.10;;
7076;SDS011;3579;48.956;9.154;2022-10-31T05:56:29;1.20;;;1.10;;
7076;SDS011;3579;48.956;9.154;2022-10-31T05:58:55;1.20;;;1.10;;
7076;SDS011;3579;48.956;9.154;2022-10-31T06:01:22;1.30;;;1.20;;
7076;SDS011;3579;48.956;9.154;2022-10-31T06:03:48;1.30;;;1.20;;
7076;SDS011;3579;48.956;9.154;2022-10-31T06:06:14;0.90;;;0.90;;
7076;SDS011;3579;48.956;9.154;2022-10-31T06:08:40;1.03;;;0.97;;
7076;SDS011;3579;48.956;9.154;2022-10-31T06:11:07;1.17;;;1.07;;
7076;SDS011;3579;48.956;9.154;2022-10-31T06:13:33;1.20;;;1.10;;
7076;SDS011;3579;48.956;9.154;2022-10-31T06:15:59;0.90;;;0.90;;
7076;SDS011;3579;48.956;9.154;2022-10-31T06:18:25;1.30;;;1.20;;
7076;SDS011;3579;48.956;9.154;2022-10-31T06:20:51;0.97;;;0.90;;
7076;SDS011;3579;48.956;9.154;2022-10-31T06:23:17;1.20;;;1.10;;
7076;SDS011;3579;48.956;9.154;2022-10-31T06:25:48;1.30;;;1.20;;
7076;SDS011;3579;48.956;9.154;2022-10-31T06:28:15;1.50;;;1.20;;
7076;SDS011;3579;48.956;9.154;2022-10-31T06:30:41;1.10;;;1.00;;
7076;SDS011;3579;48.956;9.154;2022-10-31T06:33:08;1.10;;;1.00;;
7076;SDS011;3579;48.956;9.154;2022-10-31T06:35:34;1.10;;;1.00;;
7076;SDS011;3579;48.956;9.154;2022-10-31T06:38:00;1.20;;;1.10;;
7076;SDS011;3579;48.956;9.154;2022-10-31T06:40:26;1.30;;;1.20;;
7076;SDS011;3579;48.956;9.154;2022-10-31T06:42:59;1.20;;;1.10;;
7076;SDS011;3579;48.956;9.154;2022-10-31T06:45:26;0.90;;;0.90;;
7076;SDS011;3579;48.956;9.154;2022-10-31T06:47:53;1.20;;;1.10;;
7076;SDS011;3579;48.956;9.154;2022-10-31T06:50:20;1.20;;;1.10;;
7076;SDS011;3579;48.956;9.154;2022-10-31T06:52:53;1.10;;;1.00;;
7076;SDS011;3579;48.956;9.154;2022-10-31T06:55:23;1.30;;;1.20;;
7076;SDS011;3579;48.956;9.154;2022-10-31T06:57:51;1.30;;;1.13;;
7076;SDS011;3579;48.956;9.154;2022-10-31T07:00:18;1.20;;;1.00;;
7076;SDS011;3579;48.956;9.154;2022-10-31T07:02:58;1.20;;;1.10;;
7076;SDS011;3579;48.956;9.154;2022-10-31T07:05:28;1.20;;;1.10;;
7076;SDS011;3579;48.956;9.154;2022-10-31T07:07:59;1.10;;;1.00;;
7076;SDS011;3579;48.956;9.154;2022-10-31T07:10:28;1.40;;;1.30;;
7076;SDS011;3579;48.956;9.154;2022-10-31T07:12:55;1.20;;;1.10;;
7076;SDS011;3579;48.956;9.154;2022-10-31T07:15:23;1.97;;;1.30;;
7076;SDS011;3579;48.956;9.154;2022-10-31T07:17:50;1.20;;;1.10;;
7076;SDS011;3579;48.956;9.154;2022-10-31T07:20:16;1.20;;;1.10;;
7076;SDS011;3579;48.956;9.154;2022-10-31T07:22:43;1.27;;;1.17;;
7076;SDS011;3579;48.956;9.154;2022-10-31T07:25:09;1.27;;;1.17;;
7076;SDS011;3579;48.956;9.154;2022-10-31T07:27:36;1.20;;;1.10;;
7076;SDS011;3579;48.956;9.154;2022-10-31T07:30:04;1.40;;;1.30;;
7076;SDS011;3579;48.956;9.154;2022-10-31T07:32:38;1.20;;;1.10;;
7076;SDS011;3579;48.956;9.154;2022-10-31T07:35:09;1.40;;;1.30;;
7076;SDS011;3579;48.956;9.154;2022-10-31T07:37:37;1.20;;;1.10;;
7076;SDS011;3579;48.956;9.154;2022-10-31T07:40:04;1.30;;;1.20;;
7076;SDS011;3579;48.956;9.154;2022-10-31T07:42:38;1.20;;;1.10;;
7076;SDS011;3579;48.956;9.154;2022-10-31T07:45:09;1.20;;;1.10;;
7076;SDS011;3579;48.956;9.154;2022-10-31T07:47:40;1.13;;;1.03;;
7076;SDS011;3579;48.956;9.154;2022-10-31T07:50:11;1.30;;;1.20;;
7076;SDS011;3579;48.956;9.154;2022-10-31T07:52:39;1.23;;;1.13;;
7076;SDS011;3579;48.956;9.154;2022-10-31T07:55:05;1.63;;;1.30;;
7076;SDS011;3579;48.956;9.154;2022-10-31T07:57:32;1.50;;;1.30;;
7076;SDS011;3579;48.956;9.154;2022-10-31T07:59:59;1.30;;;1.20;;
7076;SDS011;3579;48.956;9.154;2022-10-31T08:02:25;1.53;;;1.27;;
7076;SDS011;3579;48.956;9.154;2022-10-31T08:04:51;1.30;;;1.20;;
7076;SDS011;3579;48.956;9.154;2022-10-31T08:07:17;1.20;;;1.10;;
7076;SDS011;3579;48.956;9.154;2022-10-31T08:09:43;1.30;;;1.20;;
7076;SDS011;3579;48.956;9.154;2022-10-31T08:12:09;1.27;;;1.13;;
7076;SDS011;3579;48.956;9.154;2022-10-31T08:14:35;1.20;;;1.10;;
7076;SDS011;3579;48.956;9.154;2022-10-31T08:17:01;1.57;;;1.20;;
7076;SDS011;3579;48.956;9.154;2022-10-31T08:19:27;1.27;;;1.17;;
7076;SDS011;3579;48.956;9.154;2022-10-31T08:21:54;1.73;;;1.30;;
7076;SDS011;3579;48.956;9.154;2022-10-31T08:24:21;1.57;;;1.20;;
7076;SDS011;3579;48.956;9.154;2022-10-31T08:26:47;1.43;;;1.30;;
7076;SDS011;3579;48.956;9.154;2022-10-31T08:29:14;1.30;;;1.20;;
7076;SDS011;3579;48.956;9.154;2022-10-31T08:31:41;1.53;;;1.30;;
7076;SDS011;3579;48.956;9.154;2022-10-31T08:34:07;1.50;;;1.40;;
7076;SDS011;3579;48.956;9.154;2022-10-31T08:36:33;1.27;;;1.17;;
7076;SDS011;3579;48.956;9.154;2022-10-31T08:39:00;1.93;;;1.20;;
7076;SDS011;3579;48.956;9.154;2022-10-31T08:41:26;1.33;;;1.23;;
7076;SDS011;3579;48.956;9.154;2022-10-31T08:43:52;1.53;;;1.17;;
7076;SDS011;3579;48.956;9.154;2022-10-31T08:46:18;1.30;;;1.20;;
7076;SDS011;3579;48.956;9.154;2022-10-31T08:48:44;1.30;;;1.20;;
7076;SDS011;3579;48.956;9.154;2022-10-31T08:51:13;1.73;;;1.43;;
7076;SDS011;3579;48.956;9.154;2022-10-31T08:53:39;1.50;;;1.40;;
7076;SDS011;3579;48.956;9.154;2022-10-31T08:56:05;1.40;;;1.30;;
7076;SDS011;3579;48.956;9.154;2022-10-31T08:58:31;1.50;;;1.30;;
7076;SDS011;3579;48.956;9.154;2022-10-31T09:00:58;1.70;;;1.40;;
7076;SDS011;3579;48.956;9.154;2022-10-31T09:03:27;1.37;;;1.27;;
7076;SDS011;3579;48.956;9.154;2022-10-31T09:05:55;1.73;;;1.40;;
7076;SDS011;3579;48.956;9.154;2022-10-31T09:08:26;1.50;;;1.40;;
7076;SDS011;3579;48.956;9.154;2022-10-31T09:10:56;1.30;;;1.20;;
7076;SDS011;3579;48.956;9.154;2022-10-31T09:13:23;1.40;;;1.30;;
7076;SDS011;3579;48.956;9.154;2022-10-31T09:15:49;1.30;;;1.20;;
7076;SDS011;3579;48.956;9.154;2022-10-31T09:18:17;1.37;;;1.23;;
7076;SDS011;3579;48.956;9.154;2022-10-31T09:20:46;1.50;;;1.40;;
7076;SDS011;3579;48.956;9.154;2022-10-31T09:25:43;1.50;;;1.40;;
7076;SDS011;3579;48.956;9.154;2022-10-31T09:28:13;1.60;;;1.37;;
7076;SDS011;3579;48.956;9.154;2022-10-31T09:30:41;1.40;;;1.30;;
7076;SDS011;3579;48.956;9.154;2022-10-31T09:33:11;1.50;;;1.40;;
7076;SDS011;3579;48.956;9.154;2022-10-31T09:35:38;1.77;;;1.53;;
7076;SDS011;3579;48.956;9.154;2022-10-31T09:38:06;1.43;;;1.23;;
7076;SDS011;3579;48.956;9.154;2022-10-31T09:43:07;1.47;;;1.37;;
7076;SDS011;3579;48.956;9.154;2022-10-31T09:51:57;1.60;;;1.50;;
7076;SDS011;3579;48.956;9.154;2022-10-31T09:57:10;1.33;;;1.23;;
7076;SDS011;3579;48.956;9.154;2022-10-31T09:59:40;1.50;;;1.40;;
7076;SDS011;3579;48.956;9.154;2022-10-31T10:05:11;1.63;;;1.40;;
7076;SDS011;3579;48.956;9.154;2022-10-31T10:07:53;1.70;;;1.50;;
7076;SDS011;3579;48.956;9.154;2022-10-31T10:13:12;1.60;;;1.50;;
7076;SDS011;3579;48.956;9.154;2022-10-31T10:23:47;1.40;;;1.13;;
7076;SDS011;3579;48.956;9.154;2022-10-31T10:26:35;2.27;;;1.47;;
7076;SDS011;3579;48.956;9.154;2022-10-31T10:31:57;1.53;;;1.43;;
7076;SDS011;3579;48.956;9.154;2022-10-31T10:34:31;1.50;;;1.40;;
7076;SDS011;3579;48.956;9.154;2022-10-31T10:39:41;2.20;;;1.70;;
7076;SDS011;3579;48.956;9.154;2022-10-31T10:42:13;1.90;;;1.60;;
7076;SDS011;3579;48.956;9.154;2022-10-31T10:44:59;1.63;;;1.53;;
7076;SDS011;3579;48.956;9.154;2022-10-31T10:47:52;2.00;;;1.50;;
7076;SDS011;3579;48.956;9.154;2022-10-31T10:50:25;1.73;;;1.63;;
7076;SDS011;3579;48.956;9.154;2022-10-31T10:59:23;1.87;;;1.57;;
7076;SDS011;3579;48.956;9.154;2022-10-31T11:01:50;1.70;;;1.60;;
7076;SDS011;3579;48.956;9.154;2022-10-31T11:04:30;1.67;;;1.50;;
7076;SDS011;3579;48.956;9.154;2022-10-31T11:09:33;1.90;;;1.70;;
7076;SDS011;3579;48.956;9.154;2022-10-31T11:12:08;3.03;;;1.80;;
7076;SDS011;3579;48.956;9.154;2022-10-31T11:14:42;2.13;;;1.67;;
7076;SDS011;3579;48.956;9.154;2022-10-31T11:17:19;1.60;;;1.50;;
7076;SDS011;3579;48.956;9.154;2022-10-31T11:20:00;2.03;;;1.50;;
7076;SDS011;3579;48.956;9.154;2022-10-31T11:22:29;1.83;;;1.63;;
7076;SDS011;3579;48.956;9.154;2022-10-31T11:24:55;1.50;;;1.40;;
7076;SDS011;3579;48.956;9.154;2022-10-31T11:27:23;1.50;;;1.40;;
7076;SDS011;3579;48.956;9.154;2022-10-31T11:29:51;2.90;;;1.70;;
7076;SDS011;3579;48.956;9.154;2022-10-31T11:32:24;1.70;;;1.60;;
7076;SDS011;3579;48.956;9.154;2022-10-31T11:34:53;1.60;;;1.50;;
7076;SDS011;3579;48.956;9.154;2022-10-31T11:37:25;1.60;;;1.50;;
7076;SDS011;3579;48.956;9.154;2022-10-31T11:39:58;2.37;;;1.70;;
7076;SDS011;3579;48.956;9.154;2022-10-31T11:42:28;2.20;;;1.73;;
7076;SDS011;3579;48.956;9.154;2022-10-31T11:45:02;1.53;;;1.40;;
7076;SDS011;3579;48.956;9.154;2022-10-31T11:47:40;1.50;;;1.40;;
7076;SDS011;3579;48.956;9.154;2022-10-31T11:50:10;1.80;;;1.60;;
7076;SDS011;3579;48.956;9.154;2022-10-31T11:52:44;2.60;;;1.43;;
7076;SDS011;3579;48.956;9.154;2022-10-31T11:57:55;2.70;;;1.50;;
7076;SDS011;3579;48.956;9.154;2022-10-31T12:03:13;2.20;;;1.70;;
7076;SDS011;3579;48.956;9.154;2022-10-31T12:06:12;2.00;;;1.60;;
7076;SDS011;3579;48.956;9.154;2022-10-31T12:08:49;1.60;;;1.50;;
7076;SDS011;3579;48.956;9.154;2022-10-31T12:14:04;1.80;;;1.60;;
7076;SDS011;3579;48.956;9.154;2022-10-31T12:16:55;1.60;;;1.50;;
7076;SDS011;3579;48.956;9.154;2022-10-31T12:30:21;2.17;;;1.60;;
7076;SDS011;3579;48.956;9.154;2022-10-31T12:33:08;2.50;;;1.50;;
7076;SDS011;3579;48.956;9.154;2022-10-31T12:38:21;1.80;;;1.60;;
7076;SDS011;3579;48.956;9.154;2022-10-31T12:48:57;1.70;;;1.60;;
7076;SDS011;3579;48.956;9.154;2022-10-31T12:57:00;1.77;;;1.60;;
7076;SDS011;3579;48.956;9.154;2022-10-31T12:59:43;2.13;;;1.70;;
7076;SDS011;3579;48.956;9.154;2022-10-31T13:05:05;1.60;;;1.50;;
7076;SDS011;3579;48.956;9.154;2022-10-31T13:07:48;1.77;;;1.60;;
7076;SDS011;3579;48.956;9.154;2022-10-31T13:13:24;1.90;;;1.50;;
7076;SDS011;3579;48.956;9.154;2022-10-31T13:18:38;2.83;;;1.60;;
7076;SDS011;3579;48.956;9.154;2022-10-31T13:21:17;2.20;;;1.90;;
7076;SDS011;3579;48.956;9.154;2022-10-31T13:23:49;2.50;;;1.77;;
7076;SDS011;3579;48.956;9.154;2022-10-31T13:26:24;2.70;;;1.50;;
7076;SDS011;3579;48.956;9.154;2022-10-31T13:29:05;1.70;;;1.60;;
7076;SDS011;3579;48.956;9.154;2022-10-31T13:31:35;1.60;;;1.50;;
7076;SDS011;3579;48.956;9.154;2022-10-31T13:34:09;1.90;;;1.70;;
7076;SDS011;3579;48.956;9.154;2022-10-31T13:37:03;1.73;;;1.57;;
7076;SDS011;3579;48.956;9.154;2022-10-31T13:42:37;2.23;;;1.77;;
7076;SDS011;3579;48.956;9.154;2022-10-31T13:45:25;1.87;;;1.77;;
7076;SDS011;3579;48.956;9.154;2022-10-31T13:50:39;2.10;;;1.60;;
7076;SDS011;3579;48.956;9.154;2022-10-31T13:55:47;1.80;;;1.63;;
7076;SDS011;3579;48.956;9.154;2022-10-31T13:58:22;1.77;;;1.63;;
7076;SDS011;3579;48.956;9.154;2022-10-31T14:03:40;2.10;;;1.83;;
7076;SDS011;3579;48.956;9.154;2022-10-31T14:06:09;2.00;;;1.70;;
7076;SDS011;3579;48.956;9.154;2022-10-31T14:08:37;3.30;;;1.70;;
7076;SDS011;3579;48.956;9.154;2022-10-31T14:11:08;1.93;;;1.73;;
7076;SDS011;3579;48.956;9.154;2022-10-31T14:13:49;2.03;;;1.50;;
7076;SDS011;3579;48.956;9.154;2022-10-31T14:16:37;2.43;;;1.83;;
7076;SDS011;3579;48.956;9.154;2022-10-31T14:19:05;2.50;;;1.53;;
7076;SDS011;3579;48.956;9.154;2022-10-31T14:21:38;1.70;;;1.60;;
7076;SDS011;3579;48.956;9.154;2022-10-31T14:24:15;2.23;;;1.67;;
7076;SDS011;3579;48.956;9.154;2022-10-31T14:26:52;1.93;;;1.70;;
7076;SDS011;3579;48.956;9.154;2022-10-31T14:29:22;2.43;;;1.50;;
7076;SDS011;3579;48.956;9.154;2022-10-31T14:34:30;1.87;;;1.70;;
7076;SDS011;3579;48.956;9.154;2022-10-31T14:40:10;1.87;;;1.60;;
7076;SDS011;3579;48.956;9.154;2022-10-31T14:48:54;1.73;;;1.40;;
7076;SDS011;3579;48.956;9.154;2022-10-31T14:51:49;1.90;;;1.70;;
7076;SDS011;3579;48.956;9.154;2022-10-31T14:54:19;1.53;;;1.40;;
7076;SDS011;3579;48.956;9.154;2022-10-31T14:56:56;1.97;;;1.77;;
7076;SDS011;3579;48.956;9.154;2022-10-31T14:59:40;2.17;;;1.80;;
7076;SDS011;3579;48.956;9.154;2022-10-31T15:02:15;1.50;;;1.40;;
7076;SDS011;3579;48.956;9.154;2022-10-31T15:04:43;2.30;;;1.90;;
7076;SDS011;3579;48.956;9.154;2022-10-31T15:07:16;1.90;;;1.70;;
7076;SDS011;3579;48.956;9.154;2022-10-31T15:09:54;2.37;;;1.80;;
7076;SDS011;3579;48.956;9.154;2022-10-31T15:12:26;2.00;;;1.80;;
7076;SDS011;3579;48.956;9.154;2022-10-31T15:14:55;1.67;;;1.57;;
7076;SDS011;3579;48.956;9.154;2022-10-31T15:17:24;1.93;;;1.73;;
7076;SDS011;3579;48.956;9.154;2022-10-31T15:19:51;1.57;;;1.47;;
7076;SDS011;3579;48.956;9.154;2022-10-31T15:22:19;1.87;;;1.70;;
7076;SDS011;3579;48.956;9.154;2022-10-31T15:24:48;2.30;;;1.80;;
7076;SDS011;3579;48.956;9.154;2022-10-31T15:27:21;2.10;;;1.80;;
7076;SDS011;3579;48.956;9.154;2022-10-31T15:29:50;2.20;;;1.90;;
7076;SDS011;3579;48.956;9.154;2022-10-31T15:32:21;2.60;;;1.57;;
7076;SDS011;3579;48.956;9.154;2022-10-31T15:34:48;1.93;;;1.60;;
7076;SDS011;3579;48.956;9.154;2022-10-31T15:37:17;3.10;;;1.83;;
7076;SDS011;3579;48.956;9.154;2022-10-31T15:39:45;2.20;;;1.97;;
7076;SDS011;3579;48.956;9.154;2022-10-31T15:42:14;2.20;;;1.80;;
7076;SDS011;3579;48.956;9.154;2022-10-31T15:45:21;2.27;;;1.80;;
7076;SDS011;3579;48.956;9.154;2022-10-31T15:47:44;1.77;;;1.60;;
7076;SDS011;3579;48.956;9.154;2022-10-31T15:50:21;1.70;;;1.50;;
7076;SDS011;3579;48.956;9.154;2022-10-31T15:52:51;1.67;;;1.57;;
7076;SDS011;3579;48.956;9.154;2022-10-31T15:55:21;2.23;;;1.60;;
7076;SDS011;3579;48.956;9.154;2022-10-31T15:57:53;1.67;;;1.50;;
7076;SDS011;3579;48.956;9.154;2022-10-31T16:00:31;2.27;;;1.70;;
7076;SDS011;3579;48.956;9.154;2022-10-31T16:05:36;2.47;;;2.03;;
7076;SDS011;3579;48.956;9.154;2022-10-31T16:08:22;2.30;;;1.83;;
7076;SDS011;3579;48.956;9.154;2022-10-31T16:10:58;2.60;;;1.80;;
7076;SDS011;3579;48.956;9.154;2022-10-31T16:13:40;1.97;;;1.80;;
7076;SDS011;3579;48.956;9.154;2022-10-31T16:16:51;2.23;;;1.90;;
7076;SDS011;3579;48.956;9.154;2022-10-31T16:19:21;1.80;;;1.70;;
7076;SDS011;3579;48.956;9.154;2022-10-31T16:21:56;1.90;;;1.70;;
7076;SDS011;3579;48.956;9.154;2022-10-31T16:24:32;1.70;;;1.60;;
7076;SDS011;3579;48.956;9.154;2022-10-31T16:27:03;1.87;;;1.73;;
7076;SDS011;3579;48.956;9.154;2022-10-31T16:29:43;2.07;;;1.70;;
7076;SDS011;3579;48.956;9.154;2022-10-31T16:34:59;4.00;;;1.90;;
7076;SDS011;3579;48.956;9.154;2022-10-31T16:37:26;2.40;;;2.00;;
7076;SDS011;3579;48.956;9.154;2022-10-31T16:39:52;2.77;;;1.60;;
7076;SDS011;3579;48.956;9.154;2022-10-31T16:42:18;1.87;;;1.70;;
7076;SDS011;3579;48.956;9.154;2022-10-31T16:44:44;2.43;;;1.80;;
7076;SDS011;3579;48.956;9.154;2022-10-31T16:47:13;2.27;;;1.83;;
7076;SDS011;3579;48.956;9.154;2022-10-31T16:49:41;3.00;;;1.60;;
7076;SDS011;3579;48.956;9.154;2022-10-31T16:52:08;2.63;;;1.53;;
7076;SDS011;3579;48.956;9.154;2022-10-31T16:54:34;1.93;;;1.73;;
7076;SDS011;3579;48.956;9.154;2022-10-31T16:57:00;1.80;;;1.67;;
7076;SDS011;3579;48.956;9.154;2022-10-31T16:59:29;2.33;;;1.90;;
7076;SDS011;3579;48.956;9.154;2022-10-31T17:01:56;2.27;;;1.80;;
7076;SDS011;3579;48.956;9.154;2022-10-31T17:04:23;2.10;;;1.70;;
7076;SDS011;3579;48.956;9.154;2022-10-31T17:06:49;2.20;;;1.90;;
7076;SDS011;3579;48.956;9.154;2022-10-31T17:09:15;1.83;;;1.60;;
7076;SDS011;3579;48.956;9.154;2022-10-31T17:11:44;1.97;;;1.77;;
7076;SDS011;3579;48.956;9.154;2022-10-31T17:14:12;1.73;;;1.60;;
7076;SDS011;3579;48.956;9.154;2022-10-31T17:16:39;2.17;;;1.90;;
7076;SDS011;3579;48.956;9.154;2022-10-31T17:19:05;3.13;;;2.00;;
7076;SDS011;3579;48.956;9.154;2022-10-31T17:21:33;2.27;;;1.90;;
7076;SDS011;3579;48.956;9.154;2022-10-31T17:24:00;2.60;;;1.83;;
7076;SDS011;3579;48.956;9.154;2022-10-31T17:26:27;2.30;;;1.90;;
7076;SDS011;3579;48.956;9.154;2022-10-31T17:28:53;2.00;;;1.80;;
7076;SDS011;3579;48.956;9.154;2022-10-31T17:31:23;2.30;;;2.10;;
7076;SDS011;3579;48.956;9.154;2022-10-31T17:33:54;1.90;;;1.70;;
7076;SDS011;3579;48.956;9.154;2022-10-31T17:36:21;2.07;;;1.60;;
7076;SDS011;3579;48.956;9.154;2022-10-31T17:38:47;2.33;;;2.00;;
7076;SDS011;3579;48.956;9.154;2022-10-31T17:41:14;2.10;;;1.90;;
7076;SDS011;3579;48.956;9.154;2022-10-31T17:43:40;2.57;;;1.90;;
7076;SDS011;3579;48.956;9.154;2022-10-31T17:46:06;2.30;;;1.90;;
7076;SDS011;3579;48.956;9.154;2022-10-31T17:48:33;2.23;;;1.90;;
7076;SDS011;3579;48.956;9.154;2022-10-31T17:51:00;2.10;;;1.90;;
7076;SDS011;3579;48.956;9.154;2022-10-31T17:53:30;2.10;;;1.90;;